Time;durP1;ratioP1;P1;durP2;ratioP2;P2;SDS_P1;SDS_P2;PMS_P1;PMS_P2;Temp;Humidity;BMP_temperature;BMP_pressure;BME280_temperature;BME280_humidity;BME280_pressure;Samples;Min_cycle;Max_cycle;Signal;HPM_P1;HPM_P2
2022/08/18 00:00:51;;;;;;;23.00;17.70;;;;;;;19.15;72.64;98489.16;88205;1274;22568;-68
2022/08/18 00:02:53;;;;;;;25.00;17.30;;;;;;;19.16;72.79;98488.57;88175;1273;23682;-70
2022/08/18 00:04:56;;;;;;;19.30;17.30;;;;;;;19.16;72.74;98489.95;88264;1274;23335;-70
2022/08/18 00:06:57;;;;;;;22.00;18.00;;;;;;;19.15;72.76;98492.02;88076;1274;99483;-71
2022/08/18 00:09:02;;;;;;;27.70;18.90;;;;;;;19.12;72.82;98493.04;88286;1274;24422;-70
2022/08/18 00:11:05;;;;;;;27.20;17.80;;;;;;;19.10;72.89;98491.65;88223;1274;22538;-70
2022/08/18 00:13:07;;;;;;;20.40;17.10;;;;;;;19.07;72.91;98493.65;88007;1275;99559;-70
2022/08/18 00:15:13;;;;;;;26.00;16.90;;;;;;;19.02;72.86;98494.80;88156;1274;24458;-70
2022/08/18 00:17:15;;;;;;;29.80;17.20;;;;;;;19.00;73.01;98501.61;88286;1273;25263;-70
2022/08/18 00:19:17;;;;;;;26.30;16.70;;;;;;;18.97;73.07;98503.27;88290;1274;99237;-69
2022/08/18 00:21:19;;;;;;;22.30;17.40;;;;;;;18.96;73.10;98504.61;88173;1274;22583;-70
2022/08/18 00:23:22;;;;;;;22.10;17.10;;;;;;;18.96;73.24;98502.70;88225;1274;25239;-70
2022/08/18 00:25:23;;;;;;;20.00;16.40;;;;;;;18.94;73.25;98498.22;88087;1274;99430;-70
2022/08/18 00:27:28;;;;;;;22.70;15.80;;;;;;;18.90;73.35;98493.98;88060;1275;25502;-70
2022/08/18 00:29:31;;;;;;;23.10;17.80;;;;;;;18.85;73.24;98496.64;88117;1273;22597;-71
2022/08/18 00:31:32;;;;;;;24.60;16.90;;;;;;;18.81;73.48;98492.54;88221;1274;99439;-71
2022/08/18 00:33:34;;;;;;;24.80;17.30;;;;;;;18.78;73.59;98492.11;88233;1274;25339;-70
2022/08/18 00:35:38;;;;;;;24.10;16.90;;;;;;;18.74;73.74;98488.41;88291;1274;24138;-70
2022/08/18 00:37:41;;;;;;;21.50;16.90;;;;;;;18.72;73.66;98493.19;88266;1274;98188;-70
2022/08/18 00:39:43;;;;;;;29.40;17.30;;;;;;;18.71;73.71;98499.33;88221;1274;22656;-69
2022/08/18 00:41:44;;;;;;;22.10;16.60;;;;;;;18.73;73.71;98506.14;88221;1275;22609;-71
2022/08/18 00:43:48;;;;;;;29.70;18.10;;;;;;;18.73;73.86;98509.19;88297;1272;99942;-70
2022/08/18 00:45:51;;;;;;;23.40;17.90;;;;;;;18.75;73.82;98509.52;88278;1274;22555;-70
2022/08/18 00:47:53;;;;;;;23.00;18.70;;;;;;;18.77;73.81;98508.29;88258;1274;22552;-69
2022/08/18 00:49:55;;;;;;;23.40;19.70;;;;;;;18.78;74.00;98499.41;88149;1274;99542;-68
2022/08/18 00:51:59;;;;;;;37.00;19.70;;;;;;;18.81;73.98;98498.32;87727;1272;26980;-70
2022/08/18 00:54:19;;;;;;;23.00;19.30;;;;;;;18.83;74.02;98494.51;88138;1277;22707;-70
2022/08/18 00:56:25;;;;;;;23.70;19.40;;;;;;;18.86;74.14;98491.97;88219;1274;99475;-69
2022/08/18 00:58:35;;;;;;;27.50;20.20;;;;;;;18.86;74.21;98488.39;88484;1273;22838;-70
2022/08/18 01:00:37;;;;;;;23.90;18.20;;;;;;;18.85;74.25;98485.30;88295;1274;22556;-68
2022/08/18 01:02:43;;;;;;;22.00;17.80;;;;;;;18.83;74.18;98485.65;88234;1273;99328;-71
2022/08/18 01:05:05;;;;;;;19.80;17.60;;;;;;;18.81;74.17;98482.27;88223;1274;22561;-70
2022/08/18 01:07:16;;;;;;;23.30;17.60;;;;;;;18.79;74.28;98479.58;88124;1274;100784;-70
2022/08/18 01:09:18;;;;;;;27.70;18.10;;;;;;;18.80;74.32;98480.05;88297;1274;24190;-71
2022/08/18 01:11:20;;;;;;;22.00;19.60;;;;;;;18.81;74.42;98484.57;88176;1274;22682;-71
2022/08/18 01:13:28;;;;;;;25.90;20.00;;;;;;;18.81;74.31;98481.03;88024;1274;99784;-68
2022/08/18 01:15:29;;;;;;;27.60;20.00;;;;;;;18.79;74.47;98476.00;88386;1274;23977;-71
2022/08/18 01:22:37;;;;;;;28.50;21.00;;;;;;;18.86;74.67;98474.86;88079;1274;22584;-70
2022/08/18 01:27:00;;;;;;;27.90;21.90;;;;;;;18.91;74.75;98462.21;88224;1274;22904;-70
2022/08/18 01:29:10;;;;;;;31.30;22.10;;;;;;;18.92;74.74;98462.25;88162;1274;22937;-69
2022/08/18 01:31:29;;;;;;;32.50;22.90;;;;;;;18.93;74.89;98460.23;88304;1274;101637;-71
2022/08/18 01:33:35;;;;;;;25.20;21.00;;;;;;;18.93;74.81;98459.12;88182;1274;22555;-68
2022/08/18 01:35:41;;;;;;;22.20;20.00;;;;;;;18.95;74.89;98457.74;88414;1273;22792;-70
2022/08/18 01:37:43;;;;;;;25.50;20.90;;;;;;;18.95;74.85;98457.52;88174;1274;99535;-70
2022/08/18 01:39:45;;;;;;;26.60;21.40;;;;;;;18.95;74.81;98462.89;88183;1274;22554;-68
2022/08/18 01:41:47;;;;;;;29.10;20.80;;;;;;;18.96;74.95;98461.23;88190;1274;25417;-71
2022/08/18 01:43:49;;;;;;;25.90;20.90;;;;;;;18.96;74.89;98462.81;88144;1274;99346;-70
2022/08/18 01:45:51;;;;;;;23.80;20.80;;;;;;;18.95;74.98;98458.24;88228;1274;25421;-70
2022/08/18 01:47:52;;;;;;;26.70;20.70;;;;;;;18.93;74.94;98454.55;88294;1274;22709;-70
2022/08/18 01:49:55;;;;;;;36.20;20.80;;;;;;;18.90;74.99;98454.77;87998;1277;99497;-71
2022/08/18 01:51:57;;;;;;;24.30;21.20;;;;;;;18.88;75.08;98454.92;88281;1274;25770;-70
2022/08/18 01:54:00;;;;;;;30.20;22.30;;;;;;;18.88;75.10;98455.98;88169;1274;22566;-71
2022/08/18 01:56:05;;;;;;;29.40;22.10;;;;;;;18.89;75.14;98458.05;88128;1274;99606;-71
2022/08/18 01:58:06;;;;;;;32.20;22.70;;;;;;;18.89;75.19;98455.20;88250;1274;22549;-71
2022/08/18 02:00:13;;;;;;;31.60;21.50;;;;;;;18.88;75.14;98457.66;88249;1274;25377;-70
2022/08/18 02:02:25;;;;;;;28.30;22.40;;;;;;;18.85;75.22;98461.27;88061;1276;99550;-69
2022/08/18 02:04:34;;;;;;;29.10;21.60;;;;;;;18.83;75.19;98461.64;88283;1274;24218;-70
2022/08/18 02:06:36;;;;;;;29.60;21.00;;;;;;;18.80;75.17;98463.86;88248;1274;24484;-69
2022/08/18 02:08:38;;;;;;;29.00;21.80;;;;;;;18.75;75.12;98465.90;88252;1274;100148;-70
2022/08/18 02:10:40;;;;;;;28.50;22.60;;;;;;;18.72;75.27;98467.79;88208;1274;22705;-71
2022/08/18 02:12:42;;;;;;;33.70;23.60;;;;;;;18.70;75.29;98467.19;88278;1274;22595;-70
2022/08/18 02:14:44;;;;;;;36.50;22.80;;;;;;;18.69;75.31;98466.98;87591;1275;99498;-70
2022/08/18 02:16:46;;;;;;;28.10;22.50;;;;;;;18.64;75.27;98464.02;87756;1274;22608;-70
2022/08/18 02:18:47;;;;;;;28.70;22.90;;;;;;;18.57;75.39;98458.40;87798;1271;25369;-71
2022/08/18 02:20:49;;;;;;;31.30;21.40;;;;;;;18.53;75.39;98461.03;87786;1274;99677;-71
2022/08/18 02:22:51;;;;;;;36.90;22.10;;;;;;;18.50;75.43;98458.11;88136;1274;24838;-68
2022/08/18 02:24:56;;;;;;;31.80;22.50;;;;;;;18.48;75.53;98457.27;87749;1274;22653;-69
2022/08/18 02:26:58;;;;;;;31.10;21.70;;;;;;;18.46;75.59;98454.79;88402;1274;25423;-71
2022/08/18 02:29:00;;;;;;;25.70;21.40;;;;;;;18.44;75.63;98452.48;88225;1275;24315;-71
2022/08/18 02:31:06;;;;;;;33.50;20.20;;;;;;;18.41;75.59;98450.41;88039;1277;100858;-70
2022/08/18 02:33:10;;;;;;;21.80;18.60;;;;;;;18.37;75.62;98451.86;88244;1274;24208;-69
2022/08/18 02:35:12;;;;;;;24.60;19.30;;;;;;;18.32;75.60;98446.38;88351;1274;22654;-70
2022/08/18 02:37:13;;;;;;;33.30;20.70;;;;;;;18.29;75.63;98447.61;88229;1271;99960;-70
2022/08/18 02:39:15;;;;;;;32.30;21.40;;;;;;;18.25;75.72;98449.20;88247;1274;22551;-70
2022/08/18 02:41:17;;;;;;;20.10;18.00;;;;;;;18.21;75.61;98453.23;88285;1273;22547;-70
2022/08/18 02:43:19;;;;;;;25.20;19.20;;;;;;;18.17;75.74;98454.80;88106;1274;99773;-70
2022/08/18 02:45:24;;;;;;;25.20;18.70;;;;;;;18.14;75.85;98447.25;88285;1274;22619;-69
2022/08/18 02:47:26;;;;;;;29.30;19.90;;;;;;;18.12;75.75;98443.15;88323;1274;25341;-70
2022/08/18 02:49:27;;;;;;;30.20;19.70;;;;;;;18.10;75.86;98435.93;88140;1274;99354;-71
2022/08/18 02:51:29;;;;;;;33.10;21.00;;;;;;;18.06;75.96;98437.13;88245;1273;22714;-70
2022/08/18 02:53:32;;;;;;;23.60;20.70;;;;;;;18.03;75.93;98439.17;87686;1274;26667;-70
2022/08/18 02:55:33;;;;;;;26.80;20.00;;;;;;;18.03;76.13;98442.13;87584;1274;99943;-71
2022/08/18 02:57:35;;;;;;;27.00;20.90;;;;;;;18.05;76.09;98443.63;87724;1271;23022;-70
2022/08/18 02:59:39;;;;;;;35.20;20.90;;;;;;;18.04;76.15;98447.08;87725;1274;24271;-70
2022/08/18 03:01:44;;;;;;;23.60;20.30;;;;;;;18.03;76.25;98448.39;88219;1274;99527;-70
2022/08/18 03:03:46;;;;;;;30.20;21.60;;;;;;;18.02;76.18;98446.85;88093;1277;25378;-70
2022/08/18 03:05:48;;;;;;;27.50;21.40;;;;;;;18.01;76.38;98445.70;88313;1271;25383;-71
2022/08/18 03:07:49;;;;;;;22.70;20.40;;;;;;;18.01;76.29;98445.26;88052;1277;99528;-68
2022/08/18 03:09:51;;;;;;;24.60;20.80;;;;;;;18.00;76.35;98441.58;88255;1274;25223;-69
2022/08/18 03:11:53;;;;;;;30.00;21.20;;;;;;;17.99;76.35;98439.88;88331;1271;23019;-71
2022/08/18 03:13:56;;;;;;;29.90;20.70;;;;;;;18.00;76.44;98442.33;88038;1275;99461;-70
2022/08/18 03:15:58;;;;;;;29.90;20.60;;;;;;;18.00;76.36;98445.01;88340;1271;23468;-70
2022/08/18 03:18:01;;;;;;;29.10;22.50;;;;;;;18.00;76.36;98448.91;87021;1271;1385481;-69
2022/08/18 03:20:04;;;;;;;31.50;22.30;;;;;;;18.01;76.51;98455.48;87765;1271;100350;-70
2022/08/18 03:22:07;;;;;;;30.50;22.50;;;;;;;18.03;76.49;98457.63;88388;1274;24268;-70
2022/08/18 03:24:09;;;;;;;29.10;23.50;;;;;;;18.05;76.50;98457.84;88299;1271;22711;-70
2022/08/18 03:26:14;;;;;;;31.60;21.80;;;;;;;18.05;76.58;98457.45;88292;1271;99664;-69
2022/08/18 03:28:16;;;;;;;27.60;21.60;;;;;;;18.05;76.49;98463.36;88866;1271;22762;-70
2022/08/18 03:30:19;;;;;;;32.00;22.30;;;;;;;18.03;76.45;98469.53;88270;1274;24330;-70
2022/08/18 03:32:20;;;;;;;26.70;21.70;;;;;;;18.00;76.34;98471.61;88264;1271;101208;-70
2022/08/18 03:34:22;;;;;;;34.50;22.20;;;;;;;17.98;76.56;98472.37;88214;1274;22652;-70
2022/08/18 03:36:28;;;;;;;37.60;23.00;;;;;;;17.96;76.59;98474.29;88249;1274;22707;-70
2022/08/18 03:38:29;;;;;;;37.00;22.40;;;;;;;17.94;76.49;98476.40;88139;1274;99561;-69
2022/08/18 03:40:32;;;;;;;27.90;22.60;;;;;;;17.92;76.51;98478.02;88106;1274;23766;-70
2022/08/18 03:42:33;;;;;;;33.30;22.40;;;;;;;17.89;76.58;98482.80;88119;1274;22798;-70
2022/08/18 03:44:38;;;;;;;24.80;22.00;;;;;;;17.86;76.70;98482.71;88072;1274;100929;-70
2022/08/18 03:46:41;;;;;;;24.80;20.90;;;;;;;17.83;76.64;98483.47;88208;1274;22708;-69
2022/08/18 03:48:45;;;;;;;32.30;21.50;;;;;;;17.81;76.64;98488.31;88001;1274;24488;-70
2022/08/18 03:50:47;;;;;;;35.20;20.90;;;;;;;17.79;76.71;98492.38;88243;1271;99239;-70
2022/08/18 03:52:48;;;;;;;33.50;21.00;;;;;;;17.76;76.74;98500.81;88248;1271;22586;-68
2022/08/18 03:54:50;;;;;;;32.80;20.70;;;;;;;17.73;76.68;98503.38;87741;1272;23856;-68
2022/08/18 03:56:54;;;;;;;30.30;21.00;;;;;;;17.71;76.73;98500.38;88193;1273;100104;-70
2022/08/18 03:58:58;;;;;;;33.90;22.40;;;;;;;17.70;76.77;98504.75;88278;1275;22705;-71
2022/08/18 04:01:02;;;;;;;28.80;20.50;;;;;;;17.70;76.89;98504.56;88108;1273;101076;-68
2022/08/18 04:03:03;;;;;;;31.50;21.90;;;;;;;17.69;76.95;98500.02;88181;1274;22660;-71
2022/08/18 04:05:06;;;;;;;30.70;21.60;;;;;;;17.68;76.76;98506.27;88246;1274;22721;-68
2022/08/18 04:07:10;;;;;;;30.30;22.10;;;;;;;17.69;76.89;98504.47;88164;1271;99683;-69
2022/08/18 04:09:13;;;;;;;31.50;20.50;;;;;;;17.69;76.99;98505.85;88355;1271;22510;-70
2022/08/18 04:11:15;;;;;;;37.90;22.90;;;;;;;17.70;77.06;98509.66;87981;1277;25410;-70
2022/08/18 04:13:17;;;;;;;44.60;24.70;;;;;;;17.72;77.07;98511.50;87917;1274;99314;-70
2022/08/18 04:15:18;;;;;;;49.40;23.20;;;;;;;17.73;77.20;98514.06;88225;1272;25493;-71
2022/08/18 04:17:23;;;;;;;45.70;22.80;;;;;;;17.74;77.19;98516.30;88259;1271;22567;-70
2022/08/18 04:19:25;;;;;;;34.80;22.50;;;;;;;17.73;77.11;98523.27;87964;1274;100542;-69
2022/08/18 04:21:30;;;;;;;36.20;23.00;;;;;;;17.73;77.17;98521.35;88129;1274;25343;-68
2022/08/18 04:23:31;;;;;;;34.20;22.60;;;;;;;17.74;77.20;98523.38;88071;1275;22697;-71
2022/08/18 04:25:33;;;;;;;31.50;22.10;;;;;;;17.75;77.18;98522.95;88044;1274;99583;-70
2022/08/18 04:27:38;;;;;;;34.20;22.60;;;;;;;17.77;77.38;98522.40;88205;1274;25411;-70
2022/08/18 04:29:39;;;;;;;31.00;22.20;;;;;;;17.80;77.30;98526.65;88039;1274;24418;-70
2022/08/18 04:31:42;;;;;;;26.10;21.90;;;;;;;17.83;77.30;98530.82;88019;1272;101082;-70
2022/08/18 04:33:43;;;;;;;35.20;23.20;;;;;;;17.85;77.42;98528.80;88140;1274;22663;-69
2022/08/18 04:35:46;;;;;;;41.90;23.40;;;;;;;17.90;77.49;98529.15;88177;1274;22554;-71
2022/08/18 04:37:47;;;;;;;37.10;22.20;;;;;;;17.95;77.46;98529.50;87819;1274;100881;-71
2022/08/18 04:39:49;;;;;;;36.40;23.60;;;;;;;17.99;77.51;98526.48;87664;1271;25257;-71
2022/08/18 04:41:51;;;;;;;39.60;24.60;;;;;;;18.03;77.56;98526.10;87715;1271;22566;-69
2022/08/18 04:43:58;;;;;;;57.80;25.30;;;;;;;18.08;77.50;98527.66;88191;1271;99493;-70
2022/08/18 04:46:03;;;;;;;84.10;27.40;;;;;;;18.12;77.66;98531.16;88246;1274;24126;-70
2022/08/18 04:48:05;;;;;;;61.60;26.50;;;;;;;18.17;77.73;98530.60;88120;1274;23093;-70
2022/08/18 04:50:07;;;;;;;43.50;25.50;;;;;;;18.21;77.69;98534.84;88189;1271;100737;-69
2022/08/18 04:54:36;;;;;;;43.60;26.00;;;;;;;18.28;77.69;98536.56;88309;1271;27800;-69
2022/08/18 04:56:38;;;;;;;29.40;24.60;;;;;;;18.31;77.82;98540.38;88189;1271;100897;-71
2022/08/18 04:58:40;;;;;;;41.40;27.80;;;;;;;18.36;77.89;98538.94;88230;1274;22709;-69
2022/08/18 05:00:42;;;;;;;49.30;28.00;;;;;;;18.40;77.81;98539.06;88312;1274;22605;-70
2022/08/18 05:02:44;;;;;;;52.00;29.20;;;;;;;18.45;77.98;98536.66;88175;1274;99696;-71
2022/08/18 05:04:46;;;;;;;45.00;29.70;;;;;;;18.52;77.97;98533.80;88220;1272;22593;-70
2022/08/18 05:06:48;;;;;;;68.70;30.20;;;;;;;18.58;77.99;98537.74;88025;1275;22740;-71
2022/08/18 05:08:54;;;;;;;64.20;32.70;;;;;;;18.64;78.11;98542.55;88138;1274;100147;-70
2022/08/18 05:10:56;;;;;;;64.20;33.90;;;;;;;18.71;78.15;98542.02;88145;1274;22722;-71
2022/08/18 05:12:58;;;;;;;52.00;34.80;;;;;;;18.79;78.21;98539.44;88177;1271;98607;-71
2022/08/18 05:14:59;;;;;;;68.30;37.80;;;;;;;18.87;78.31;98539.96;88009;1278;22715;-71
2022/08/18 05:17:03;;;;;;;79.00;38.20;;;;;;;18.95;78.36;98540.02;88179;1277;22593;-71
2022/08/18 05:19:07;;;;;;;98.70;38.80;;;;;;;19.02;78.46;98540.62;88326;1271;99989;-70
2022/08/18 05:21:14;;;;;;;103.40;38.00;;;;;;;19.10;78.50;98538.98;88285;1274;22560;-70
2022/08/18 05:23:16;;;;;;;104.70;38.50;;;;;;;19.17;78.46;98540.11;88309;1271;25308;-71
2022/08/18 05:25:17;;;;;;;97.50;41.60;;;;;;;19.24;78.37;98540.20;88312;1271;100087;-70
2022/08/18 05:27:20;;;;;;;89.70;41.60;;;;;;;19.32;78.50;98532.89;88260;1274;22583;-72
2022/08/18 05:29:22;;;;;;;92.10;41.20;;;;;;;19.42;78.58;98533.08;88135;1274;23007;-71
2022/08/18 05:31:26;;;;;;;101.80;41.30;;;;;;;19.51;78.57;98533.27;88131;1274;99382;-68
2022/08/18 05:33:27;;;;;;;146.80;43.80;;;;;;;19.60;78.58;98536.60;88178;1274;22570;-71
2022/08/18 05:35:43;;;;;;;109.00;40.80;;;;;;;19.69;78.61;98541.61;88185;1272;22709;-70
2022/08/18 05:38:14;;;;;;;121.40;41.60;;;;;;;19.78;78.70;98543.69;88017;1275;100301;-71
2022/08/18 05:40:16;;;;;;;61.00;35.60;;;;;;;19.87;78.63;98547.47;88352;1271;24274;-71
2022/08/18 05:42:20;;;;;;;57.50;34.00;;;;;;;19.96;78.64;98546.86;88314;1271;24344;-69
2022/08/18 05:44:27;;;;;;;65.80;33.80;;;;;;;20.05;78.55;98547.23;88086;1274;99480;-70
2022/08/18 05:46:46;;;;;;;52.60;32.40;;;;;;;20.13;78.59;98549.29;88066;1275;22712;-70
2022/08/18 05:48:49;;;;;;;51.20;30.70;;;;;;;20.20;78.39;98550.90;88143;1275;22833;-71
2022/08/18 05:50:53;;;;;;;47.60;31.70;;;;;;;20.28;78.42;98547.55;87602;1274;100862;-71
2022/08/18 05:56:45;;;;;;;50.30;31.90;;;;;;;20.37;78.42;98550.81;88101;1277;24424;-71
2022/08/18 05:58:45;;;;;;;42.20;28.50;;;;;;;20.58;78.28;98547.20;87426;1286;23326;-71
2022/08/18 06:00:55;;;;;;;53.80;28.40;;;;;;;20.65;78.14;98548.86;87346;1287;22566;-72
2022/08/18 06:03:20;;;;;;;67.60;28.30;;;;;;;20.72;78.19;98548.04;87518;1285;99110;-71
2022/08/18 06:05:37;;;;;;;45.50;28.00;;;;;;;20.81;78.14;98548.59;87416;1284;22610;-71
2022/08/18 06:07:43;;;;;;;45.50;26.40;;;;;;;20.88;78.13;98544.33;87219;1285;99966;-70
2022/08/18 06:09:53;;;;;;;51.10;25.80;;;;;;;20.93;77.99;98542.03;87450;1288;22576;-70
2022/08/18 06:12:12;;;;;;;29.80;24.60;;;;;;;21.01;77.99;98541.79;87575;1285;22898;-69
2022/08/18 06:14:14;;;;;;;41.90;22.60;;;;;;;21.10;77.98;98544.63;86751;1287;99387;-71
2022/08/18 06:16:26;;;;;;;35.70;24.10;;;;;;;21.17;77.91;98545.73;86853;1286;22602;-70
2022/08/18 06:18:46;;;;;;;32.70;23.00;;;;;;;21.25;77.90;98548.89;87431;1286;25339;-70
2022/08/18 06:21:09;;;;;;;41.20;25.40;;;;;;;21.33;77.68;98541.52;87326;1284;101058;-70
2022/08/18 06:23:31;;;;;;;35.30;22.80;;;;;;;21.40;77.65;98541.14;87218;1286;25215;-71
2022/08/18 06:25:51;;;;;;;40.60;24.40;;;;;;;21.48;77.66;98537.82;87199;1285;99292;-71
2022/08/18 06:28:04;;;;;;;30.80;22.70;;;;;;;21.54;77.53;98535.44;87204;1287;23201;-70
2022/08/18 06:30:21;;;;;;;27.90;21.60;;;;;;;21.63;77.65;98539.98;87431;1285;25522;-71
2022/08/18 06:32:38;;;;;;;49.10;22.00;;;;;;;21.70;77.44;98545.52;88625;1281;99469;-71
2022/08/18 06:35:07;;;;;;;32.30;22.00;;;;;;;21.80;77.41;98547.31;88351;1271;25319;-71
2022/08/18 06:38:37;;;;;;;35.10;20.10;;;;;;;21.90;77.34;98546.71;88244;1271;99534;-70
2022/08/18 06:40:00;;;;;;;;;;;;;;;22.01;77.16;98545.95;88396;1272;24279;-69
2022/08/18 06:42:04;;;;;;;35.20;19.50;;;;;;;22.11;77.26;98543.52;88190;1274;22729;-69
2022/08/18 06:44:08;;;;;;;33.60;20.70;;;;;;;22.18;77.00;98548.30;88402;1271;100159;-71
2022/08/18 06:46:17;;;;;;;32.70;18.30;;;;;;;22.23;77.02;98549.90;88371;1274;22709;-70
2022/08/18 06:48:41;;;;;;;39.30;19.00;;;;;;;22.29;76.90;98544.27;88409;1271;26786;-71
2022/08/18 06:50:59;;;;;;;37.90;17.70;;;;;;;22.38;76.74;98545.21;88269;1271;98154;-70
2022/08/18 06:53:04;;;;;;;41.00;19.30;;;;;;;22.49;76.79;98552.32;88391;1271;22584;-70
2022/08/18 06:55:12;;;;;;;33.10;17.90;;;;;;;22.57;76.62;98558.06;88224;1274;99499;-69
2022/08/18 06:57:26;;;;;;;26.30;17.30;;;;;;;22.65;76.40;98563.08;88745;1274;22551;-71
2022/08/18 06:59:35;;;;;;;30.20;18.50;;;;;;;22.74;76.44;98564.20;88178;1274;22557;-72
2022/08/18 07:01:37;;;;;;;24.00;17.90;;;;;;;22.79;76.17;98563.98;88168;1274;99955;-71
2022/08/18 07:03:45;;;;;;;34.50;17.80;;;;;;;22.82;76.05;98566.22;88252;1274;24098;-69
2022/08/18 07:06:03;;;;;;;28.60;16.80;;;;;;;22.85;75.91;98569.81;88115;1274;23955;-70
2022/08/18 07:08:09;;;;;;;32.30;16.80;;;;;;;22.90;76.00;98570.20;87922;1274;99432;-71
2022/08/18 07:10:13;;;;;;;28.50;17.20;;;;;;;22.96;75.94;98573.14;88210;1274;25257;-71
2022/08/18 07:12:22;;;;;;;29.10;17.40;;;;;;;23.00;75.81;98574.16;88201;1274;23142;-70
2022/08/18 07:14:24;;;;;;;26.60;17.10;;;;;;;23.04;75.67;98574.98;88025;1275;99553;-68
2022/08/18 07:16:26;;;;;;;27.60;16.80;;;;;;;23.13;75.65;98572.44;87619;1274;24964;-72
2022/08/18 07:18:28;;;;;;;29.30;16.80;;;;;;;23.23;75.73;98573.73;88145;1274;25325;-71
2022/08/18 07:20:30;;;;;;;19.40;15.70;;;;;;;23.33;75.65;98572.85;88075;1274;99945;-71
2022/08/18 07:22:50;;;;;;;31.50;17.20;;;;;;;23.39;75.22;98572.33;88228;1273;22738;-72
2022/08/18 07:24:55;;;;;;;34.80;16.50;;;;;;;23.43;75.38;98570.15;88139;1274;24284;-69
2022/08/18 07:27:14;;;;;;;34.20;15.10;;;;;;;23.52;75.39;98568.31;88204;1275;101318;-70
2022/08/18 07:29:16;;;;;;;26.70;16.10;;;;;;;23.61;74.99;98565.15;88139;1274;24537;-69
2022/08/18 07:31:37;;;;;;;21.00;15.30;;;;;;;23.68;74.83;98567.98;88147;1274;99923;-72
2022/08/18 07:33:43;;;;;;;16.80;13.50;;;;;;;23.77;74.80;98567.54;88490;1275;22556;-70
2022/08/18 07:35:50;;;;;;;27.40;12.70;;;;;;;23.84;74.39;98567.53;87857;1274;28138;-69
2022/08/18 07:38:07;;;;;;;20.20;14.10;;;;;;;23.85;74.21;98566.85;88037;1273;99313;-70
2022/08/18 07:40:26;;;;;;;25.30;14.70;;;;;;;23.87;74.09;98569.66;88179;1274;24218;-70
2022/08/18 07:42:33;;;;;;;21.60;13.20;;;;;;;23.96;74.36;98573.38;87474;1274;24489;-70
2022/08/18 07:45:11;;;;;;;28.10;14.70;;;;;;;24.02;73.88;98574.38;88093;1271;99255;-71
2022/08/18 07:47:21;;;;;;;26.40;14.20;;;;;;;24.09;73.94;98567.63;88122;1274;25661;-72
2022/08/18 07:49:27;;;;;;;22.40;12.70;;;;;;;24.22;73.67;98563.67;87937;1276;98531;-71
2022/08/18 07:51:41;;;;;;;16.90;12.70;;;;;;;24.33;73.39;98560.70;88203;1274;22715;-70
2022/08/18 07:53:58;;;;;;;30.50;12.40;;;;;;;24.36;73.40;98556.27;88235;1274;24931;-72
2022/08/18 07:56:06;;;;;;;13.80;11.00;;;;;;;24.47;73.43;98560.56;87973;1275;99693;-71
2022/08/18 07:58:20;;;;;;;19.90;10.80;;;;;;;24.57;72.91;98550.63;88164;1274;22554;-69
2022/08/18 08:00:33;;;;;;;12.30;9.70;;;;;;;24.56;72.31;98548.18;88181;1273;24128;-71
2022/08/18 08:02:49;;;;;;;24.80;10.60;;;;;;;24.65;72.57;98545.10;88038;1274;99108;-71
2022/08/18 08:05:17;;;;;;;27.20;10.80;;;;;;;24.76;72.41;98545.26;88048;1273;22553;-70
2022/08/18 08:07:30;;;;;;;20.20;10.10;;;;;;;24.83;72.17;98547.15;87521;1281;99656;-71
2022/08/18 08:10:04;;;;;;;24.40;10.60;;;;;;;24.89;72.05;98546.77;87874;1281;22615;-69
2022/08/18 08:12:29;;;;;;;26.60;10.00;;;;;;;24.97;71.59;98545.82;87512;1279;22708;-70
2022/08/18 08:14:40;;;;;;;18.30;9.90;;;;;;;25.08;71.58;98543.27;87756;1278;99427;-71
2022/08/18 08:16:49;;;;;;;12.60;9.40;;;;;;;25.19;71.66;98543.56;87784;1279;22946;-69
2022/08/18 08:19:18;;;;;;;15.20;9.80;;;;;;;25.27;71.20;98546.23;87315;1282;22533;-69
2022/08/18 08:21:24;;;;;;;19.30;10.00;;;;;;;25.35;71.23;98546.88;87339;1280;23041;-69
2022/08/18 08:24:02;;;;;;;33.20;10.20;;;;;;;25.49;71.23;98543.76;87216;1280;23532;-71
2022/08/18 08:26:03;;;;;;;14.10;8.40;;;;;;;25.60;70.84;98539.27;87670;1280;99472;-71
2022/08/18 08:28:12;;;;;;;26.70;10.60;;;;;;;25.64;70.47;98538.49;87832;1280;22594;-72
2022/08/18 08:30:20;;;;;;;18.30;9.70;;;;;;;25.66;70.17;98540.20;87897;1280;24388;-72
2022/08/18 08:32:49;;;;;;;13.40;8.90;;;;;;;25.72;70.13;98534.06;87608;1283;99330;-70
2022/08/18 08:35:04;;;;;;;17.90;8.70;;;;;;;25.85;69.83;98536.77;87804;1280;22563;-71
2022/08/18 08:37:11;;;;;;;13.00;9.00;;;;;;;25.92;69.55;98539.86;87770;1280;98946;-71
2022/08/18 08:39:23;;;;;;;15.30;8.50;;;;;;;25.99;69.52;98538.89;87875;1280;25515;-71
2022/08/18 08:41:37;;;;;;;14.50;9.00;;;;;;;26.11;69.60;98536.95;87848;1279;22538;-70
2022/08/18 08:43:53;;;;;;;35.50;9.60;;;;;;;26.24;69.32;98538.06;87951;1280;101486;-70
2022/08/18 08:46:10;;;;;;;20.80;8.30;;;;;;;26.37;69.07;98538.98;88161;1274;25400;-71
2022/08/18 08:48:19;;;;;;;18.90;8.90;;;;;;;26.51;68.73;98542.70;88320;1273;25292;-71
2022/08/18 08:50:26;;;;;;;17.10;9.40;;;;;;;26.60;68.36;98545.80;88174;1274;99316;-73
2022/08/18 08:52:45;;;;;;;16.20;8.60;;;;;;;26.58;67.43;98546.98;88084;1274;23719;-70
2022/08/18 08:54:52;;;;;;;17.50;8.90;;;;;;;26.60;67.80;98549.35;88232;1274;22593;-71
2022/08/18 08:56:58;;;;;;;11.40;8.20;;;;;;;26.67;67.94;98551.79;88181;1274;99005;-68
2022/08/18 08:59:06;;;;;;;22.70;8.40;;;;;;;26.76;67.82;98553.49;87586;1274;25547;-72
2022/08/18 09:01:20;;;;;;;12.20;9.40;;;;;;;26.84;67.77;98557.63;88183;1272;99310;-71
2022/08/18 09:03:36;;;;;;;17.60;8.70;;;;;;;26.92;67.82;98551.44;88075;1273;24629;-72
2022/08/18 09:06:10;;;;;;;32.60;9.30;;;;;;;26.98;67.32;98555.79;88209;1274;22618;-72
2022/08/18 09:08:25;;;;;;;12.00;8.10;;;;;;;26.99;66.66;98563.14;88138;1274;99206;-71
2022/08/18 09:10:59;;;;;;;15.30;8.90;;;;;;;27.00;66.68;98568.60;88255;1274;24207;-70
2022/08/18 09:13:18;;;;;;;17.70;8.50;;;;;;;27.02;66.04;98567.86;88052;1273;99323;-72
2022/08/18 09:15:38;;;;;;;15.30;8.70;;;;;;;27.03;65.97;98566.00;88129;1274;23799;-70
2022/08/18 09:18:05;;;;;;;12.90;9.30;;;;;;;27.05;65.96;98565.77;88158;1273;24287;-72
2022/08/18 09:20:35;;;;;;;15.50;9.40;;;;;;;27.05;65.79;98564.02;88171;1274;99190;-72
2022/08/18 09:23:09;;;;;;;26.10;15.10;;;;;;;27.14;66.45;98565.51;88185;1274;22715;-71
2022/08/18 09:25:40;;;;;;;35.20;10.50;;;;;;;27.25;65.65;98561.82;88200;1274;100069;-69
2022/08/18 09:27:46;;;;;;;14.20;9.10;;;;;;;27.24;65.59;98558.70;88092;1273;24588;-71
2022/08/18 09:29:56;;;;;;;14.10;9.30;;;;;;;27.31;65.50;98559.75;88249;1274;22576;-71
2022/08/18 09:32:19;;;;;;;22.40;9.40;;;;;;;27.40;65.25;98566.14;87997;1274;99733;-70
2022/08/18 09:34:51;;;;;;;25.30;10.00;;;;;;;27.49;65.47;98564.60;88130;1274;26549;-71
2022/08/18 09:37:14;;;;;;;13.20;8.90;;;;;;;27.64;65.22;98572.90;88189;1273;22571;-69
2022/08/18 09:42:11;;;;;;;19.30;9.20;;;;;;;27.69;64.95;98569.13;87575;1274;22582;-70
2022/08/18 09:44:34;;;;;;;12.50;9.10;;;;;;;27.82;64.69;98567.48;87971;1274;99293;-70
2022/08/18 09:46:58;;;;;;;15.30;9.60;;;;;;;27.85;64.47;98562.64;88223;1271;22705;-70
2022/08/18 09:49:25;;;;;;;19.90;9.50;;;;;;;27.91;63.76;98567.30;88120;1274;99377;-70
2022/08/18 09:51:36;;;;;;;18.50;9.30;;;;;;;27.97;63.95;98564.23;88100;1273;22574;-71
2022/08/18 09:53:52;;;;;;;14.60;9.00;;;;;;;28.09;63.96;98564.15;88124;1274;22643;-71
2022/08/18 09:55:56;;;;;;;24.10;9.80;;;;;;;28.14;63.83;98562.39;88083;1273;99189;-70
2022/08/18 09:58:33;;;;;;;17.50;9.30;;;;;;;28.24;64.06;98562.70;88153;1274;22567;-70
2022/08/18 10:00:35;;;;;;;18.60;9.80;;;;;;;28.51;64.01;98564.16;87829;1280;22774;-71
2022/08/18 10:03:02;;;;;;;16.20;9.70;;;;;;;28.67;63.43;98570.57;87897;1278;99348;-70
2022/08/18 10:05:17;;;;;;;19.00;9.90;;;;;;;28.77;63.31;98572.73;87826;1279;22732;-69